PWSweather.com
Personal Weather Stations
Station Observations
IHTIMAN1
Neighbourhood 1, IhtimanBG 2050

Neighbourhood 1IhtimanBG 2050

Lat: 42.436852, Lon: 23.817921

Elevation: 2066

Station Type: Oregon Scientific WMR968

http://ihtiman-meteo.com

High Low Average
Temperature 75.0°F23.9°C 47.7°F8.7°C 64.5°F18.1°C
Dew Point 55.6°F13.1°C 37.9°F3.3°C 49.3°F9.6°C
Winds 12.7 mph 20.4 kmh Calm Calm 4.0 mph S6.4 kmh S
Wind Gusts 18.4 mph29.6 kmh -- 6.0 mph9.7 kmh
Humidity 98% 34% 62%
Pressure 29.82 in1009.8 mb 29.68 in1005.1 mb -
Precipitation 0.00 in0.0 mm - -
Hour Temp Dew Point Humidity Winds Wind Gusts Pressure Precip Precip Rate Daily Precip Total
12:00 AM 53.1°F11.7°C 50.2°F10.1°C 90% Calm Calm -- 29.82 in1009.8 mb - 0.00 in0.0 mm 0.00 in0.0 mm
12:10 AM 53.1°F11.7°C 50.5°F10.3°C 91% Calm Calm -- 29.82 in1009.8 mb - 0.00 in0.0 mm 0.00 in0.0 mm
12:20 AM 53.1°F11.7°C 50.5°F10.3°C 91% Calm Calm -- 29.82 in1009.8 mb - 0.00 in0.0 mm 0.00 in0.0 mm
12:30 AM 53.1°F11.7°C 50.8°F10.4°C 92% Calm Calm -- 29.82 in1009.8 mb - 0.00 in0.0 mm 0.00 in0.0 mm
12:40 AM 53.2°F11.8°C 51.0°F10.6°C 92% Calm Calm -- 29.82 in1009.8 mb - 0.00 in0.0 mm 0.00 in0.0 mm
12:50 AM 53.4°F11.9°C 51.4°F10.8°C 93% Calm Calm -- 29.82 in1009.8 mb - 0.00 in0.0 mm 0.00 in0.0 mm
01:00 AM 53.4°F11.9°C 51.4°F10.8°C 93% Calm Calm -- 29.82 in1009.8 mb - 0.00 in0.0 mm 0.00 in0.0 mm
01:10 AM 53.4°F11.9°C 51.4°F10.8°C 93% Calm Calm -- 29.82 in1009.8 mb - 0.00 in0.0 mm 0.00 in0.0 mm
01:20 AM 53.4°F11.9°C 51.7°F10.9°C 94% Calm Calm -- 29.80 in1009.1 mb - 0.00 in0.0 mm 0.00 in0.0 mm
01:30 AM 53.2°F11.8°C 51.6°F10.9°C 94% Calm Calm -- 29.82 in1009.8 mb - 0.00 in0.0 mm 0.00 in0.0 mm
01:40 AM 53.1°F11.7°C 51.4°F10.8°C 94% Calm Calm -- 29.82 in1009.8 mb - 0.00 in0.0 mm 0.00 in0.0 mm
01:50 AM 52.7°F11.5°C 51.0°F10.6°C 94% Calm Calm -- 29.82 in1009.8 mb - 0.00 in0.0 mm 0.00 in0.0 mm
02:00 AM 52.3°F11.3°C 50.7°F10.4°C 94% Calm Calm -- 29.82 in1009.8 mb - 0.00 in0.0 mm 0.00 in0.0 mm
02:10 AM 52.2°F11.2°C 50.5°F10.3°C 94% Calm Calm -- 29.82 in1009.8 mb - 0.00 in0.0 mm 0.00 in0.0 mm
02:20 AM 52.0°F11.1°C 50.3°F10.2°C 94% Calm Calm -- 29.82 in1009.8 mb - 0.00 in0.0 mm 0.00 in0.0 mm
02:30 AM 51.8°F11.0°C 50.4°F10.2°C 95% Calm Calm -- 29.80 in1009.1 mb - 0.00 in0.0 mm 0.00 in0.0 mm
02:40 AM 51.6°F10.9°C 50.2°F10.1°C 95% Calm Calm -- 29.80 in1009.1 mb - 0.00 in0.0 mm 0.00 in0.0 mm
02:50 AM 51.6°F10.9°C 50.2°F10.1°C 95% Calm Calm -- 29.80 in1009.1 mb - 0.00 in0.0 mm 0.00 in0.0 mm
03:00 AM 51.6°F10.9°C 50.5°F10.3°C 96% Calm Calm -- 29.80 in1009.1 mb - 0.00 in0.0 mm 0.00 in0.0 mm
03:10 AM 51.1°F10.6°C 50.0°F10.0°C 96% Calm Calm -- 29.80 in1009.1 mb - 0.00 in0.0 mm 0.00 in0.0 mm
03:20 AM 50.6°F10.3°C 49.5°F9.7°C 96% Calm Calm -- 29.80 in1009.1 mb - 0.00 in0.0 mm 0.00 in0.0 mm
03:30 AM 50.3°F10.2°C 49.2°F9.6°C 96% Calm Calm -- 29.80 in1009.1 mb - 0.00 in0.0 mm 0.00 in0.0 mm
03:40 AM 50.2°F10.1°C 49.1°F9.5°C 96% Calm Calm -- 29.80 in1009.1 mb - 0.00 in0.0 mm 0.00 in0.0 mm
03:50 AM 50.0°F10.0°C 48.9°F9.4°C 96% Calm Calm -- 29.80 in1009.1 mb - 0.00 in0.0 mm 0.00 in0.0 mm
04:00 AM 49.6°F9.8°C 48.8°F9.3°C 97% Calm Calm -- 29.80 in1009.1 mb - 0.00 in0.0 mm 0.00 in0.0 mm
04:10 AM 49.5°F9.7°C 48.6°F9.2°C 97% Calm Calm -- 29.80 in1009.1 mb - 0.00 in0.0 mm 0.00 in0.0 mm
04:20 AM 49.3°F9.6°C 48.5°F9.2°C 97% Calm Calm -- 29.80 in1009.1 mb - 0.00 in0.0 mm 0.00 in0.0 mm
04:30 AM 49.2°F9.6°C 48.4°F9.1°C 97% Calm Calm -- 29.80 in1009.1 mb - 0.00 in0.0 mm 0.00 in0.0 mm
04:40 AM 48.5°F9.2°C 47.7°F8.7°C 97% Calm Calm -- 29.80 in1009.1 mb - 0.00 in0.0 mm 0.00 in0.0 mm
04:50 AM 47.8°F8.8°C 47.0°F8.3°C 97% Calm Calm -- 29.80 in1009.1 mb - 0.00 in0.0 mm 0.00 in0.0 mm
05:20 AM 47.7°F8.7°C 47.1°F8.4°C 98% Calm Calm -- 29.82 in1009.8 mb - 0.00 in0.0 mm 0.00 in0.0 mm
05:30 AM 47.8°F8.8°C 47.3°F8.5°C 98% Calm Calm -- 29.82 in1009.8 mb - 0.00 in0.0 mm 0.00 in0.0 mm
05:40 AM 48.1°F8.9°C 47.6°F8.7°C 98% Calm Calm -- 29.82 in1009.8 mb - 0.00 in0.0 mm 0.00 in0.0 mm
05:50 AM 49.0°F9.4°C 48.5°F9.2°C 98% Calm Calm -- 29.82 in1009.8 mb - 0.00 in0.0 mm 0.00 in0.0 mm
06:00 AM 49.5°F9.7°C 48.9°F9.4°C 98% Calm Calm -- 29.82 in1009.8 mb - 0.00 in0.0 mm 0.00 in0.0 mm
06:10 AM 49.6°F9.8°C 49.1°F9.5°C 98% Calm Calm -- 29.82 in1009.8 mb - 0.00 in0.0 mm 0.00 in0.0 mm
06:20 AM 49.3°F9.6°C 48.8°F9.3°C 98% Calm Calm -- 29.82 in1009.8 mb - 0.00 in0.0 mm 0.00 in0.0 mm
06:30 AM 50.1°F10.1°C 49.6°F9.8°C 98% Calm Calm -- 29.82 in1009.8 mb - 0.00 in0.0 mm 0.00 in0.0 mm
06:40 AM 50.4°F10.2°C 49.8°F9.9°C 98% Calm Calm -- 29.82 in1009.8 mb - 0.00 in0.0 mm 0.00 in0.0 mm
06:50 AM 50.6°F10.3°C 50.1°F10.1°C 98% Calm Calm -- 29.82 in1009.8 mb - 0.00 in0.0 mm 0.00 in0.0 mm
07:00 AM 50.4°F10.2°C 49.9°F9.9°C 98% Calm Calm -- 29.82 in1009.8 mb - 0.00 in0.0 mm 0.00 in0.0 mm
07:10 AM 51.7°F10.9°C 51.2°F10.7°C 98% Calm Calm -- 29.82 in1009.8 mb - 0.00 in0.0 mm 0.00 in0.0 mm
07:20 AM 53.6°F12.0°C 53.1°F11.7°C 98% Calm Calm -- 29.82 in1009.8 mb - 0.00 in0.0 mm 0.00 in0.0 mm
07:30 AM 55.7°F13.2°C 54.6°F12.6°C 96% Calm Calm -- 29.82 in1009.8 mb - 0.00 in0.0 mm 0.00 in0.0 mm
07:40 AM 57.1°F13.9°C 54.2°F12.3°C 90% Calm Calm -- 29.82 in1009.8 mb - 0.00 in0.0 mm 0.00 in0.0 mm
07:50 AM 58.0°F14.4°C 53.2°F11.8°C 84% Calm Calm -- 29.82 in1009.8 mb - 0.00 in0.0 mm 0.00 in0.0 mm
08:00 AM 60.0°F15.6°C 53.5°F11.9°C 79% Calm Calm -- 29.82 in1009.8 mb - 0.00 in0.0 mm 0.00 in0.0 mm
08:10 AM 60.5°F15.8°C 52.2°F11.2°C 74% Calm Calm -- 29.82 in1009.8 mb - 0.00 in0.0 mm 0.00 in0.0 mm
08:20 AM 61.0°F16.1°C 51.5°F10.8°C 71% Calm Calm -- 29.82 in1009.8 mb - 0.00 in0.0 mm 0.00 in0.0 mm
08:30 AM 62.8°F17.1°C 51.7°F10.9°C 67% Calm Calm -- 29.82 in1009.8 mb - 0.00 in0.0 mm 0.00 in0.0 mm
08:40 AM 63.0°F17.2°C 51.0°F10.6°C 65% Calm Calm -- 29.82 in1009.8 mb - 0.00 in0.0 mm 0.00 in0.0 mm
08:50 AM 62.9°F17.2°C 51.3°F10.7°C 66% Calm Calm -- 29.82 in1009.8 mb - 0.00 in0.0 mm 0.00 in0.0 mm
09:00 AM 65.5°F18.6°C 53.8°F12.1°C 66% Calm Calm -- 29.82 in1009.8 mb - 0.00 in0.0 mm 0.00 in0.0 mm
09:10 AM 66.7°F19.3°C 53.7°F12.1°C 63% Calm Calm -- 29.82 in1009.8 mb - 0.00 in0.0 mm 0.00 in0.0 mm
09:20 AM 67.5°F19.7°C 54.4°F12.4°C 63% Calm Calm -- 29.82 in1009.8 mb - 0.00 in0.0 mm 0.00 in0.0 mm
09:30 AM 70.1°F21.2°C 55.6°F13.1°C 60% Calm Calm -- 29.82 in1009.8 mb - 0.00 in0.0 mm 0.00 in0.0 mm
09:40 AM 70.8°F21.6°C 55.3°F12.9°C 58% Calm Calm -- 29.82 in1009.8 mb - 0.00 in0.0 mm 0.00 in0.0 mm
09:50 AM 71.2°F21.8°C 54.2°F12.3°C 55% 5.8 mph SE9.3 kmh SE 9.2 mph14.8 kmh 29.80 in1009.1 mb - 0.00 in0.0 mm 0.00 in0.0 mm
10:00 AM 73.0°F22.8°C 54.4°F12.4°C 52% 3.5 mph SE5.6 kmh SE 3.5 mph5.6 kmh 29.82 in1009.8 mb - 0.00 in0.0 mm 0.00 in0.0 mm
10:10 AM 73.2°F22.9°C 53.5°F11.9°C 50% 4.6 mph SE7.4 kmh SE 8.1 mph13.0 kmh 29.82 in1009.8 mb - 0.00 in0.0 mm 0.00 in0.0 mm
10:20 AM 73.2°F22.9°C 53.5°F11.9°C 50% 4.6 mph E7.4 kmh E 5.8 mph9.3 kmh 29.82 in1009.8 mb - 0.00 in0.0 mm 0.00 in0.0 mm
10:30 AM 73.2°F22.9°C 53.5°F11.9°C 50% 3.5 mph SE5.6 kmh SE 5.8 mph9.3 kmh 29.82 in1009.8 mb - 0.00 in0.0 mm 0.00 in0.0 mm
10:40 AM 73.2°F22.9°C 53.5°F11.9°C 50% 4.6 mph SE7.4 kmh SE 8.1 mph13.0 kmh 29.82 in1009.8 mb - 0.00 in0.0 mm 0.00 in0.0 mm
10:50 AM 73.2°F22.9°C 53.5°F11.9°C 50% 5.8 mph SE9.3 kmh SE 8.1 mph13.0 kmh 29.82 in1009.8 mb - 0.00 in0.0 mm 0.00 in0.0 mm
11:00 AM 73.2°F22.9°C 53.5°F11.9°C 50% 6.9 mph SE11.1 kmh SE 10.4 mph16.7 kmh 29.82 in1009.8 mb - 0.00 in0.0 mm 0.00 in0.0 mm
11:10 AM 73.9°F23.3°C 52.4°F11.3°C 47% 8.1 mph SE13.0 kmh SE 10.4 mph16.7 kmh 29.82 in1009.8 mb - 0.00 in0.0 mm 0.00 in0.0 mm
11:20 AM 73.9°F23.3°C 52.4°F11.3°C 47% 4.6 mph SE7.4 kmh SE 8.1 mph13.0 kmh 29.80 in1009.1 mb - 0.00 in0.0 mm 0.00 in0.0 mm
11:30 AM 73.9°F23.3°C 52.4°F11.3°C 47% 8.1 mph S13.0 kmh S 10.4 mph16.7 kmh 29.80 in1009.1 mb - 0.00 in0.0 mm 0.00 in0.0 mm
11:40 AM 73.9°F23.3°C 52.4°F11.3°C 47% 6.9 mph SSE11.1 kmh SSE 10.4 mph16.7 kmh 29.80 in1009.1 mb - 0.00 in0.0 mm 0.00 in0.0 mm
11:50 AM 73.9°F23.3°C 52.4°F11.3°C 47% 6.9 mph SE11.1 kmh SE 10.4 mph16.7 kmh 29.80 in1009.1 mb - 0.00 in0.0 mm 0.00 in0.0 mm
12:00 PM 73.9°F23.3°C 52.4°F11.3°C 47% 10.4 mph SE16.7 kmh SE 11.5 mph18.5 kmh 29.80 in1009.1 mb - 0.00 in0.0 mm 0.00 in0.0 mm
12:10 PM 73.9°F23.3°C 52.4°F11.3°C 47% 5.8 mph SE9.3 kmh SE 9.2 mph14.8 kmh 29.80 in1009.1 mb - 0.00 in0.0 mm 0.00 in0.0 mm
12:20 PM 73.9°F23.3°C 52.4°F11.3°C 47% 5.8 mph SE9.3 kmh SE 9.2 mph14.8 kmh 29.80 in1009.1 mb - 0.00 in0.0 mm 0.00 in0.0 mm
12:30 PM 75.0°F23.9°C 51.0°F10.6°C 43% 8.1 mph SE13.0 kmh SE 16.1 mph25.9 kmh 29.80 in1009.1 mb - 0.00 in0.0 mm 0.00 in0.0 mm
12:40 PM 74.3°F23.5°C 50.4°F10.2°C 43% 9.2 mph SE14.8 kmh SE 11.5 mph18.5 kmh 29.80 in1009.1 mb - 0.00 in0.0 mm 0.00 in0.0 mm
12:50 PM 74.3°F23.5°C 50.4°F10.2°C 43% 5.8 mph SSE9.3 kmh SSE 10.4 mph16.7 kmh 29.80 in1009.1 mb - 0.00 in0.0 mm 0.00 in0.0 mm
01:00 PM 74.3°F23.5°C 50.4°F10.2°C 43% 8.1 mph S13.0 kmh S 10.4 mph16.7 kmh 29.80 in1009.1 mb - 0.00 in0.0 mm 0.00 in0.0 mm
01:10 PM 74.3°F23.5°C 50.4°F10.2°C 43% 8.1 mph SSE13.0 kmh SSE 10.4 mph16.7 kmh 29.80 in1009.1 mb - 0.00 in0.0 mm 0.00 in0.0 mm
01:20 PM 74.3°F23.5°C 50.4°F10.2°C 43% 6.9 mph SSE11.1 kmh SSE 9.2 mph14.8 kmh 29.80 in1009.1 mb - 0.00 in0.0 mm 0.00 in0.0 mm
01:30 PM 74.3°F23.5°C 50.4°F10.2°C 43% 5.8 mph SSE9.3 kmh SSE 5.8 mph9.3 kmh 29.77 in1008.1 mb - 0.00 in0.0 mm 0.00 in0.0 mm
01:40 PM 74.3°F23.5°C 50.4°F10.2°C 43% 8.1 mph SE13.0 kmh SE 9.2 mph14.8 kmh 29.77 in1008.1 mb - 0.00 in0.0 mm 0.00 in0.0 mm
01:50 PM 74.3°F23.5°C 50.4°F10.2°C 43% 8.1 mph SE13.0 kmh SE 12.7 mph20.4 kmh 29.80 in1009.1 mb - 0.00 in0.0 mm 0.00 in0.0 mm
02:00 PM 74.3°F23.5°C 50.4°F10.2°C 43% 5.8 mph S9.3 kmh S 8.1 mph13.0 kmh 29.80 in1009.1 mb - 0.00 in0.0 mm 0.00 in0.0 mm
02:10 PM 74.3°F23.5°C 50.4°F10.2°C 43% 6.9 mph SE11.1 kmh SE 9.2 mph14.8 kmh 29.80 in1009.1 mb - 0.00 in0.0 mm 0.00 in0.0 mm
02:20 PM 74.3°F23.5°C 50.4°F10.2°C 43% 5.8 mph SE9.3 kmh SE 6.9 mph11.1 kmh 29.80 in1009.1 mb - 0.00 in0.0 mm 0.00 in0.0 mm
02:30 PM 74.3°F23.5°C 50.4°F10.2°C 43% 3.5 mph SE5.6 kmh SE 6.9 mph11.1 kmh 29.80 in1009.1 mb - 0.00 in0.0 mm 0.00 in0.0 mm
02:40 PM 74.3°F23.5°C 50.4°F10.2°C 43% 5.8 mph SE9.3 kmh SE 8.1 mph13.0 kmh 29.80 in1009.1 mb - 0.00 in0.0 mm 0.00 in0.0 mm
02:50 PM 74.3°F23.5°C 50.4°F10.2°C 43% 6.9 mph ESE11.1 kmh ESE 8.1 mph13.0 kmh 29.80 in1009.1 mb - 0.00 in0.0 mm 0.00 in0.0 mm
03:00 PM 74.3°F23.5°C 50.4°F10.2°C 43% 5.8 mph SSE9.3 kmh SSE 8.1 mph13.0 kmh 29.77 in1008.1 mb - 0.00 in0.0 mm 0.00 in0.0 mm
03:10 PM 74.3°F23.5°C 50.4°F10.2°C 43% 6.9 mph SE11.1 kmh SE 8.1 mph13.0 kmh 29.77 in1008.1 mb - 0.00 in0.0 mm 0.00 in0.0 mm
03:20 PM 74.3°F23.5°C 50.4°F10.2°C 43% 6.9 mph SE11.1 kmh SE 11.5 mph18.5 kmh 29.77 in1008.1 mb - 0.00 in0.0 mm 0.00 in0.0 mm
03:30 PM 74.3°F23.5°C 50.4°F10.2°C 43% 5.8 mph SSE9.3 kmh SSE 11.5 mph18.5 kmh 29.77 in1008.1 mb - 0.00 in0.0 mm 0.00 in0.0 mm
03:40 PM 74.3°F23.5°C 50.4°F10.2°C 43% 6.9 mph ESE11.1 kmh ESE 9.2 mph14.8 kmh 29.77 in1008.1 mb - 0.00 in0.0 mm 0.00 in0.0 mm
03:50 PM 74.3°F23.5°C 50.4°F10.2°C 43% 6.9 mph SSE11.1 kmh SSE 8.1 mph13.0 kmh 29.77 in1008.1 mb - 0.00 in0.0 mm 0.00 in0.0 mm
04:00 PM 74.3°F23.5°C 50.4°F10.2°C 43% 4.6 mph SSE7.4 kmh SSE 10.4 mph16.7 kmh 29.77 in1008.1 mb - 0.00 in0.0 mm 0.00 in0.0 mm
04:10 PM 74.3°F23.5°C 50.4°F10.2°C 43% 8.1 mph SE13.0 kmh SE 11.5 mph18.5 kmh 29.77 in1008.1 mb - 0.00 in0.0 mm 0.00 in0.0 mm
04:20 PM 74.3°F23.5°C 50.4°F10.2°C 43% 4.6 mph SE7.4 kmh SE 8.1 mph13.0 kmh 29.77 in1008.1 mb - 0.00 in0.0 mm 0.00 in0.0 mm
04:30 PM 74.3°F23.5°C 50.4°F10.2°C 43% 5.8 mph SE9.3 kmh SE 8.1 mph13.0 kmh 29.77 in1008.1 mb - 0.00 in0.0 mm 0.00 in0.0 mm
04:40 PM 74.3°F23.5°C 50.4°F10.2°C 43% 4.6 mph SE7.4 kmh SE 8.1 mph13.0 kmh 29.77 in1008.1 mb - 0.00 in0.0 mm 0.00 in0.0 mm
04:50 PM 74.3°F23.5°C 50.4°F10.2°C 43% 4.6 mph SSE7.4 kmh SSE 5.8 mph9.3 kmh 29.77 in1008.1 mb - 0.00 in0.0 mm 0.00 in0.0 mm
05:00 PM 74.3°F23.5°C 50.4°F10.2°C 43% 4.6 mph S7.4 kmh S 8.1 mph13.0 kmh 29.77 in1008.1 mb - 0.00 in0.0 mm 0.00 in0.0 mm
05:10 PM 74.3°F23.5°C 50.4°F10.2°C 43% 6.9 mph SSE11.1 kmh SSE 12.7 mph20.4 kmh 29.77 in1008.1 mb - 0.00 in0.0 mm 0.00 in0.0 mm
05:20 PM 73.8°F23.2°C 54.5°F12.5°C 51% 6.9 mph ESE11.1 kmh ESE 8.1 mph13.0 kmh 29.77 in1008.1 mb - 0.00 in0.0 mm 0.00 in0.0 mm
05:30 PM 73.8°F23.2°C 54.5°F12.5°C 51% 5.8 mph SE9.3 kmh SE 9.2 mph14.8 kmh 29.74 in1007.1 mb - 0.00 in0.0 mm 0.00 in0.0 mm
05:40 PM 72.8°F22.7°C 55.2°F12.9°C 54% 5.8 mph SE9.3 kmh SE 8.1 mph13.0 kmh 29.74 in1007.1 mb - 0.00 in0.0 mm 0.00 in0.0 mm
05:50 PM 72.1°F22.3°C 54.1°F12.3°C 53% 5.8 mph SSE9.3 kmh SSE 11.5 mph18.5 kmh 29.74 in1007.1 mb - 0.00 in0.0 mm 0.00 in0.0 mm
06:00 PM 72.1°F22.3°C 54.1°F12.3°C 53% 6.9 mph ESE11.1 kmh ESE 8.1 mph13.0 kmh 29.74 in1007.1 mb - 0.00 in0.0 mm 0.00 in0.0 mm
06:10 PM 71.8°F22.1°C 54.2°F12.3°C 54% 4.6 mph SE7.4 kmh SE 8.1 mph13.0 kmh 29.74 in1007.1 mb - 0.00 in0.0 mm 0.00 in0.0 mm
06:20 PM 71.4°F21.9°C 54.9°F12.7°C 56% 5.8 mph SE9.3 kmh SE 10.4 mph16.7 kmh 29.71 in1006.1 mb - 0.00 in0.0 mm 0.00 in0.0 mm
06:30 PM 70.3°F21.3°C 54.9°F12.7°C 58% 4.6 mph SE7.4 kmh SE 8.1 mph13.0 kmh 29.74 in1007.1 mb - 0.00 in0.0 mm 0.00 in0.0 mm
06:40 PM 70.3°F21.3°C 54.9°F12.7°C 58% 4.6 mph ESE7.4 kmh ESE 5.8 mph9.3 kmh 29.74 in1007.1 mb - 0.00 in0.0 mm 0.00 in0.0 mm
06:50 PM 70.2°F21.2°C 53.7°F12.1°C 56% 6.9 mph SE11.1 kmh SE 9.2 mph14.8 kmh 29.74 in1007.1 mb - 0.00 in0.0 mm 0.00 in0.0 mm
07:00 PM 70.6°F21.4°C 49.4°F9.7°C 47% 8.1 mph SE13.0 kmh SE 10.4 mph16.7 kmh 29.74 in1007.1 mb - 0.00 in0.0 mm 0.00 in0.0 mm
07:10 PM 71.1°F21.7°C 48.0°F8.9°C 44% 5.8 mph SE9.3 kmh SE 8.1 mph13.0 kmh 29.74 in1007.1 mb - 0.00 in0.0 mm 0.00 in0.0 mm
07:20 PM 70.9°F21.6°C 47.3°F8.5°C 43% 6.9 mph SE11.1 kmh SE 8.1 mph13.0 kmh 29.74 in1007.1 mb - 0.00 in0.0 mm 0.00 in0.0 mm
07:30 PM 70.8°F21.6°C 47.2°F8.4°C 43% 5.8 mph SE9.3 kmh SE 5.8 mph9.3 kmh 29.71 in1006.1 mb - 0.00 in0.0 mm 0.00 in0.0 mm
07:40 PM 70.7°F21.5°C 45.9°F7.7°C 41% 6.9 mph SE11.1 kmh SE 10.4 mph16.7 kmh 29.71 in1006.1 mb - 0.00 in0.0 mm 0.00 in0.0 mm
07:50 PM 70.9°F21.6°C 44.7°F7.1°C 39% 6.9 mph SSE11.1 kmh SSE 12.7 mph20.4 kmh 29.74 in1007.1 mb - 0.00 in0.0 mm 0.00 in0.0 mm
08:00 PM 69.9°F21.1°C 44.5°F6.9°C 40% 5.8 mph SE9.3 kmh SE 13.8 mph22.2 kmh 29.71 in1006.1 mb - 0.00 in0.0 mm 0.00 in0.0 mm
08:10 PM 70.2°F21.2°C 42.7°F5.9°C 37% 8.1 mph SSE13.0 kmh SSE 15.0 mph24.1 kmh 29.71 in1006.1 mb - 0.00 in0.0 mm 0.00 in0.0 mm
08:20 PM 70.6°F21.4°C 42.3°F5.7°C 36% 6.9 mph SSE11.1 kmh SSE 10.4 mph16.7 kmh 29.71 in1006.1 mb - 0.00 in0.0 mm 0.00 in0.0 mm
08:30 PM 70.2°F21.2°C 41.2°F5.1°C 35% 6.9 mph SE11.1 kmh SE 10.4 mph16.7 kmh 29.71 in1006.1 mb - 0.00 in0.0 mm 0.00 in0.0 mm
08:40 PM 69.9°F21.1°C 41.0°F5.0°C 35% 8.1 mph SE13.0 kmh SE 12.7 mph20.4 kmh 29.71 in1006.1 mb - 0.00 in0.0 mm 0.00 in0.0 mm
08:50 PM 69.4°F20.8°C 40.6°F4.8°C 35% 6.9 mph SSE11.1 kmh SSE 10.4 mph16.7 kmh 29.71 in1006.1 mb - 0.00 in0.0 mm 0.00 in0.0 mm
09:00 PM 69.3°F20.7°C 39.7°F4.3°C 34% 12.7 mph SSE20.4 kmh SSE 18.4 mph29.6 kmh 29.71 in1006.1 mb - 0.00 in0.0 mm 0.00 in0.0 mm
09:10 PM 69.4°F20.8°C 39.8°F4.3°C 34% 11.5 mph SSE18.5 kmh SSE 15.0 mph24.1 kmh 29.71 in1006.1 mb - 0.00 in0.0 mm 0.00 in0.0 mm
09:20 PM 69.4°F20.8°C 39.8°F4.3°C 34% 10.4 mph S16.7 kmh S 17.3 mph27.8 kmh 29.71 in1006.1 mb - 0.00 in0.0 mm 0.00 in0.0 mm
09:30 PM 68.7°F20.4°C 39.2°F4.0°C 34% 10.4 mph S16.7 kmh S 12.7 mph20.4 kmh 29.68 in1005.1 mb - 0.00 in0.0 mm 0.00 in0.0 mm
09:40 PM 68.4°F20.2°C 38.9°F3.8°C 34% 10.4 mph SSE16.7 kmh SSE 15.0 mph24.1 kmh 29.68 in1005.1 mb - 0.00 in0.0 mm 0.00 in0.0 mm
09:50 PM 68.0°F20.0°C 38.6°F3.7°C 34% 8.1 mph SSE13.0 kmh SSE 11.5 mph18.5 kmh 29.71 in1006.1 mb - 0.00 in0.0 mm 0.00 in0.0 mm
10:00 PM 67.6°F19.8°C 38.3°F3.5°C 34% 6.9 mph SSE11.1 kmh SSE 9.2 mph14.8 kmh 29.71 in1006.1 mb - 0.00 in0.0 mm 0.00 in0.0 mm
10:10 PM 67.3°F19.6°C 37.9°F3.3°C 34% 5.8 mph SE9.3 kmh SE 9.2 mph14.8 kmh 29.71 in1006.1 mb - 0.00 in0.0 mm 0.00 in0.0 mm
10:20 PM 66.6°F19.2°C 38.1°F3.4°C 35% 3.5 mph NNW5.6 kmh NNW 5.8 mph9.3 kmh 29.71 in1006.1 mb - 0.00 in0.0 mm 0.00 in0.0 mm
10:30 PM 65.8°F18.8°C 39.5°F4.2°C 38% 3.5 mph NE5.6 kmh NE 5.8 mph9.3 kmh 29.74 in1007.1 mb - 0.00 in0.0 mm 0.00 in0.0 mm
10:40 PM 64.9°F18.3°C 40.6°F4.8°C 41% 3.5 mph NE5.6 kmh NE 8.1 mph13.0 kmh 29.74 in1007.1 mb - 0.00 in0.0 mm 0.00 in0.0 mm
10:50 PM 64.6°F18.1°C 41.6°F5.3°C 43% 6.9 mph SE11.1 kmh SE 11.5 mph18.5 kmh 29.74 in1007.1 mb - 0.00 in0.0 mm 0.00 in0.0 mm
11:00 PM 65.1°F18.4°C 42.0°F5.6°C 43% 3.5 mph SE5.6 kmh SE 5.8 mph9.3 kmh 29.74 in1007.1 mb - 0.00 in0.0 mm 0.00 in0.0 mm
11:10 PM 64.4°F18.0°C 42.0°F5.6°C 44% 2.3 mph NNE3.7 kmh NNE 3.5 mph5.6 kmh 29.74 in1007.1 mb - 0.00 in0.0 mm 0.00 in0.0 mm
11:20 PM 63.8°F17.7°C 42.0°F5.6°C 45% 2.3 mph ESE3.7 kmh ESE 3.5 mph5.6 kmh 29.74 in1007.1 mb - 0.00 in0.0 mm 0.00 in0.0 mm
11:30 PM 63.8°F17.7°C 42.0°F5.6°C 45% 4.6 mph ESE7.4 kmh ESE 5.8 mph9.3 kmh 29.74 in1007.1 mb - 0.00 in0.0 mm 0.00 in0.0 mm
11:40 PM 64.0°F17.8°C 42.3°F5.7°C 45% 3.5 mph ESE5.6 kmh ESE 5.8 mph9.3 kmh 29.74 in1007.1 mb - 0.00 in0.0 mm 0.00 in0.0 mm
11:50 PM 63.7°F17.6°C 41.9°F5.5°C 45% 4.6 mph SE7.4 kmh SE 11.5 mph18.5 kmh 29.74 in1007.1 mb - 0.00 in0.0 mm 0.00 in0.0 mm